aviador You're here:

PAKT Decoded Metar

KETCHIKAN in AK, USA
Report Time2018-07-16 07:53:00
UTC Time2018-07-16 08:27:27
Flight Rules ifr IFR
Wind120° at 11 kt
W.Decomp.*RWY 11: 10.8 kt HW 2.1 kt LCW
W.Rank120° ranks 6
Current wind is above 120° avg. (9.0)
Visibility9999 m
Phenomena:N/A
Clouds:Broken 007 Hf
Broken 010 Hf
Overcast 018 Hf
Expected CloudBase > 400 ft AGL from Temp-Dew spread
Ceiling700 ft
Temp13°C (ISA -2)
Dew Point12°C (94% RH)
AAT9.7°C
QNH1021 hPa
Density Alt-207 ft
Elevation92 ft
Report Wrong Elevation
Raw Report
PAKT 160753Z AUTO 12011KT 7SM BKN007 BKN010 OVC018 13/12 A3015=

Extra information for PAKT:More info

Metar Taf Metar & Taf Last 4 Metars F.Rules Stats Wind Profile Meteogram Temp Stats Airport Information Weather charts Add Link Nearby VenuesMetar ALERT Operation Metar Decoded Social comments

AIRNAV info for PAKT